Dauphin, Canada
Current Conditions -  °F | °C
As of 6:49 AM on Monday 26 Jan 2015 (Local Time) from CYDN Reporting Station
Broken Clouds Broken Clouds  
Wind Chill: 18°   Ceiling: 3300
Heat Index: 28°   Visibility: 9mi
Dew Point: 27°   Wind: 12mph
Humidity: 93%   Direction: 30°NNE
Pressure: 29.77"   Gusts: NA
Location:  51.15°N, 100.05°W
Report Text: CYDN 261249Z AUTO 03010KT 9SM SCT015 BKN033 M02/M03 A2977 RMK PRESRR SLP100
Loading
Personal Weather Stations






























Interactive Weather Map New forecast layout! Learn more

10-Day Weather Forecast

Advertisements
Track Severe Weather on mobile